sensor_id;sensor_type;location;lat;lon;timestamp;pressure;altitude;pressure_sealevel;temperature
74043;BMP280;62384;53.600;10.040;2022-12-29T00:01:47;-8488.59;;;8.69
74043;BMP280;62384;53.600;10.040;2022-12-29T00:04:14;-8490.09;;;8.76
74043;BMP280;62384;53.600;10.040;2022-12-29T00:06:40;-8156.47;;;8.58
74043;BMP280;62384;53.600;10.040;2022-12-29T00:09:06;-8155.25;;;8.53
74043;BMP280;62384;53.600;10.040;2022-12-29T00:11:32;-7832.31;;;8.81
74043;BMP280;62384;53.600;10.040;2022-12-29T00:14:06;-7503.97;;;8.87
74043;BMP280;62384;53.600;10.040;2022-12-29T00:16:50;-6504.44;;;8.38
74043;BMP280;62384;53.600;10.040;2022-12-29T00:19:15;-7175.06;;;8.90
74043;BMP280;62384;53.600;10.040;2022-12-29T00:22:00;-7504.44;;;8.89
74043;BMP280;62384;53.600;10.040;2022-12-29T00:24:44;-6848.94;;;9.07
74043;BMP280;62384;53.600;10.040;2022-12-29T00:27:26;-6848.50;;;9.05
74043;BMP280;62384;53.600;10.040;2022-12-29T00:30:11;-6518.97;;;9.06
74043;BMP280;62384;53.600;10.040;2022-12-29T00:32:55;-6517.03;;;8.97
74043;BMP280;62384;53.600;10.040;2022-12-29T00:35:51;-6191.78;;;9.19
74043;BMP280;62384;53.600;10.040;2022-12-29T00:38:17;-6519.28;;;9.08
74043;BMP280;62384;53.600;10.040;2022-12-29T00:41:02;-6520.69;;;9.14
74043;BMP280;62384;53.600;10.040;2022-12-29T00:43:45;-6520.47;;;9.13
74043;BMP280;62384;53.600;10.040;2022-12-29T00:46:30;-5859.19;;;9.07
74043;BMP280;62384;53.600;10.040;2022-12-29T00:48:57;-5863.97;;;9.30
74043;BMP280;62384;53.600;10.040;2022-12-29T00:51:42;-5533.16;;;9.27
74043;BMP280;62384;53.600;10.040;2022-12-29T00:54:08;-5534.16;;;9.32
74043;BMP280;62384;53.600;10.040;2022-12-29T00:56:34;-4873.84;;;9.32
74043;BMP280;62384;53.600;10.040;2022-12-29T00:59:03;-4873.38;;;9.30
74043;BMP280;62384;53.600;10.040;2022-12-29T01:01:29;-5203.69;;;9.30
74043;BMP280;62384;53.600;10.040;2022-12-29T01:03:54;-5204.06;;;9.32
74043;BMP280;62384;53.600;10.040;2022-12-29T01:06:19;-4871.59;;;9.20
74043;BMP280;62384;53.600;10.040;2022-12-29T01:08:45;-4873.66;;;9.31
74043;BMP280;62384;53.600;10.040;2022-12-29T01:11:12;-5204.28;;;9.33
74043;BMP280;62384;53.600;10.040;2022-12-29T01:13:41;-5205.44;;;9.39
74043;BMP280;62384;53.600;10.040;2022-12-29T01:16:09;-5534.06;;;9.31
74043;BMP280;62384;53.600;10.040;2022-12-29T01:18:34;-5204.38;;;9.34
74043;BMP280;62384;53.600;10.040;2022-12-29T01:21:03;-5205.44;;;9.39
74043;BMP280;62384;53.600;10.040;2022-12-29T01:23:29;-3555.16;;;9.48
74043;BMP280;62384;53.600;10.040;2022-12-29T01:25:55;-2894.09;;;9.48
74043;BMP280;62384;53.600;10.040;2022-12-29T01:28:21;-3556.16;;;9.54
74043;BMP280;62384;53.600;10.040;2022-12-29T01:30:46;-3555.81;;;9.52
74043;BMP280;62384;53.600;10.040;2022-12-29T01:33:11;-4217.09;;;9.54
74043;BMP280;62384;53.600;10.040;2022-12-29T01:35:37;-4876.78;;;9.48
74043;BMP280;62384;53.600;10.040;2022-12-29T01:38:02;-5207.28;;;9.49
74043;BMP280;62384;53.600;10.040;2022-12-29T01:40:27;-5865.13;;;9.36
74043;BMP280;62384;53.600;10.040;2022-12-29T01:42:53;-6524.88;;;9.34
74043;BMP280;62384;53.600;10.040;2022-12-29T01:45:19;-7185.22;;;9.35
74043;BMP280;62384;53.600;10.040;2022-12-29T01:47:52;-7186.25;;;9.40
74043;BMP280;62384;53.600;10.040;2022-12-29T01:50:31;-7515.88;;;9.38
74043;BMP280;62384;53.600;10.040;2022-12-29T01:53:04;-7846.03;;;9.39
74043;BMP280;62384;53.600;10.040;2022-12-29T01:55:34;-7846.28;;;9.40
74043;BMP280;62384;53.600;10.040;2022-12-29T01:58:04;-8174.25;;;9.32
74043;BMP280;62384;53.600;10.040;2022-12-29T02:00:30;-8175.31;;;9.37
74043;BMP280;62384;53.600;10.040;2022-12-29T02:02:55;-8175.31;;;9.37
74043;BMP280;62384;53.600;10.040;2022-12-29T02:05:37;-8504.69;;;9.35
74043;BMP280;62384;53.600;10.040;2022-12-29T02:08:04;-8492.81;;;8.87
74043;BMP280;62384;53.600;10.040;2022-12-29T02:10:32;-8506.03;;;9.40
74043;BMP280;62384;53.600;10.040;2022-12-29T02:13:00;-8506.28;;;9.42
74043;BMP280;62384;53.600;10.040;2022-12-29T02:18:21;-8504.94;;;9.36
74043;BMP280;62384;53.600;10.040;2022-12-29T02:21:09;-8508.00;;;9.49
74043;BMP280;62384;53.600;10.040;2022-12-29T02:27:22;-8503.56;;;9.30
74043;BMP280;62384;53.600;10.040;2022-12-29T02:30:07;-8835.09;;;9.37
74043;BMP280;62384;53.600;10.040;2022-12-29T02:32:47;-8504.31;;;9.33
74043;BMP280;62384;53.600;10.040;2022-12-29T02:35:32;-8834.22;;;9.34
74043;BMP280;62384;53.600;10.040;2022-12-29T02:46:23;-8504.81;;;9.35
74043;BMP280;62384;53.600;10.040;2022-12-29T02:49:12;-8504.44;;;9.34
74043;BMP280;62384;53.600;10.040;2022-12-29T02:51:50;-8504.81;;;9.35
74043;BMP280;62384;53.600;10.040;2022-12-29T02:54:21;-8505.91;;;9.40
74043;BMP280;62384;53.600;10.040;2022-12-29T02:57:12;-8506.16;;;9.41
74043;BMP280;62384;53.600;10.040;2022-12-29T02:59:39;-8175.94;;;9.39
74043;BMP280;62384;53.600;10.040;2022-12-29T03:02:27;-8171.94;;;9.23
74043;BMP280;62384;53.600;10.040;2022-12-29T03:10:29;-7848.06;;;9.48
74043;BMP280;62384;53.600;10.040;2022-12-29T03:13:08;-7847.09;;;9.44
74043;BMP280;62384;53.600;10.040;2022-12-29T03:16:26;-7847.81;;;9.47
74043;BMP280;62384;53.600;10.040;2022-12-29T03:21:57;-7518.88;;;9.52
74043;BMP280;62384;53.600;10.040;2022-12-29T03:24:50;-7519.69;;;9.55
74043;BMP280;62384;53.600;10.040;2022-12-29T03:27:21;-7517.97;;;9.48
74043;BMP280;62384;53.600;10.040;2022-12-29T03:29:55;-7519.00;;;9.52
74043;BMP280;62384;53.600;10.040;2022-12-29T03:32:25;-7518.53;;;9.50
74043;BMP280;62384;53.600;10.040;2022-12-29T03:34:56;-7516.56;;;9.42
74043;BMP280;62384;53.600;10.040;2022-12-29T03:37:27;-7189.97;;;9.57
74043;BMP280;62384;53.600;10.040;2022-12-29T03:39:53;-6860.53;;;9.60
74043;BMP280;62384;53.600;10.040;2022-12-29T03:42:21;-7187.50;;;9.46
74043;BMP280;62384;53.600;10.040;2022-12-29T03:44:53;-6531.66;;;9.66
74043;BMP280;62384;53.600;10.040;2022-12-29T03:47:20;-6525.31;;;9.36
74043;BMP280;62384;53.600;10.040;2022-12-29T03:49:45;-6531.97;;;9.67
74043;BMP280;62384;53.600;10.040;2022-12-29T03:52:11;-6201.41;;;9.66
74043;BMP280;62384;53.600;10.040;2022-12-29T03:54:36;-6191.03;;;9.16
74043;BMP280;62384;53.600;10.040;2022-12-29T03:57:04;-5871.97;;;9.70
74043;BMP280;62384;53.600;10.040;2022-12-29T03:59:30;-5541.91;;;9.71
74043;BMP280;62384;53.600;10.040;2022-12-29T04:01:55;-5873.09;;;9.75
74043;BMP280;62384;53.600;10.040;2022-12-29T04:04:20;-5870.72;;;9.64
74043;BMP280;62384;53.600;10.040;2022-12-29T04:06:46;-5872.38;;;9.72
74043;BMP280;62384;53.600;10.040;2022-12-29T04:09:11;-5871.16;;;9.66
74043;BMP280;62384;53.600;10.040;2022-12-29T04:11:36;-5872.47;;;9.72
74043;BMP280;62384;53.600;10.040;2022-12-29T04:14:02;-5873.59;;;9.78
74043;BMP280;62384;53.600;10.040;2022-12-29T04:16:27;-5541.63;;;9.70
74043;BMP280;62384;53.600;10.040;2022-12-29T04:18:52;-5539.44;;;9.59
74043;BMP280;62384;53.600;10.040;2022-12-29T04:21:18;-5211.63;;;9.72
74043;BMP280;62384;53.600;10.040;2022-12-29T04:23:43;-5211.81;;;9.73
74043;BMP280;62384;53.600;10.040;2022-12-29T04:26:09;-5214.16;;;9.85
74043;BMP280;62384;53.600;10.040;2022-12-29T04:28:35;-4884.03;;;9.87
74043;BMP280;62384;53.600;10.040;2022-12-29T04:31:02;-5542.03;;;9.72
74043;BMP280;62384;53.600;10.040;2022-12-29T04:33:27;-5543.00;;;9.77
74043;BMP280;62384;53.600;10.040;2022-12-29T04:35:53;-5543.59;;;9.80
74043;BMP280;62384;53.600;10.040;2022-12-29T04:38:19;-5873.69;;;9.78
74043;BMP280;62384;53.600;10.040;2022-12-29T04:40:44;-5871.25;;;9.66
74043;BMP280;62384;53.600;10.040;2022-12-29T04:43:10;-5870.53;;;9.63
74043;BMP280;62384;53.600;10.040;2022-12-29T04:45:42;-5869.50;;;9.58
74043;BMP280;62384;53.600;10.040;2022-12-29T04:48:07;-6202.47;;;9.71
74043;BMP280;62384;53.600;10.040;2022-12-29T04:50:33;-6200.91;;;9.63
74043;BMP280;62384;53.600;10.040;2022-12-29T04:52:58;-6202.34;;;9.70
74043;BMP280;62384;53.600;10.040;2022-12-29T04:55:23;-6201.94;;;9.68
74043;BMP280;62384;53.600;10.040;2022-12-29T04:57:49;-6531.13;;;9.63
74043;BMP280;62384;53.600;10.040;2022-12-29T05:00:14;-7186.91;;;9.43
74043;BMP280;62384;53.600;10.040;2022-12-29T05:02:39;-7191.56;;;9.64
74043;BMP280;62384;53.600;10.040;2022-12-29T05:05:05;-7850.19;;;9.57
74043;BMP280;62384;53.600;10.040;2022-12-29T05:07:31;-7851.97;;;9.65
74043;BMP280;62384;53.600;10.040;2022-12-29T05:09:59;-8183.56;;;9.71
74043;BMP280;62384;53.600;10.040;2022-12-29T05:12:24;-8174.47;;;9.33
74043;BMP280;62384;53.600;10.040;2022-12-29T05:14:49;-8511.59;;;9.63
74043;BMP280;62384;53.600;10.040;2022-12-29T05:20:36;-9500.75;;;9.61
74043;BMP280;62384;53.600;10.040;2022-12-29T05:23:02;-9501.69;;;9.65
74043;BMP280;62384;53.600;10.040;2022-12-29T05:25:27;-9505.50;;;9.79
74043;BMP280;62384;53.600;10.040;2022-12-29T05:27:52;-9504.47;;;9.75
74043;BMP280;62384;53.600;10.040;2022-12-29T05:30:17;-9505.91;;;9.81
74043;BMP280;62384;53.600;10.040;2022-12-29T05:32:43;-9508.66;;;9.91
74043;BMP280;62384;53.600;10.040;2022-12-29T05:35:08;-9510.66;;;9.99
74043;BMP280;62384;53.600;10.040;2022-12-29T05:37:33;-9511.16;;;10.01
74043;BMP280;62384;53.600;10.040;2022-12-29T05:40:03;-9508.28;;;9.90
74043;BMP280;62384;53.600;10.040;2022-12-29T05:42:28;-9511.31;;;10.01
74043;BMP280;62384;53.600;10.040;2022-12-29T05:44:53;-9182.41;;;10.06
74043;BMP280;62384;53.600;10.040;2022-12-29T05:47:19;-8529.91;;;10.38
74043;BMP280;62384;53.600;10.040;2022-12-29T05:49:44;-7540.63;;;10.46
74043;BMP280;62384;53.600;10.040;2022-12-29T05:52:44;-6552.19;;;10.62
74043;BMP280;62384;53.600;10.040;2022-12-29T05:55:10;-6220.41;;;10.57
74043;BMP280;62384;53.600;10.040;2022-12-29T05:57:35;-5888.72;;;10.52
74043;BMP280;62384;53.600;10.040;2022-12-29T06:00:05;-5229.75;;;10.66
74043;BMP280;62384;53.600;10.040;2022-12-29T06:02:30;-3243.63;;;10.66
74043;BMP280;62384;53.600;10.040;2022-12-29T06:04:56;-2912.91;;;10.69
74043;BMP280;62384;53.600;10.040;2022-12-29T06:07:21;-2911.03;;;10.57
74043;BMP280;62384;53.600;10.040;2022-12-29T06:09:46;-2911.66;;;10.61
74043;BMP280;62384;53.600;10.040;2022-12-29T06:12:12;-2249.69;;;10.64
74043;BMP280;62384;53.600;10.040;2022-12-29T06:14:37;-1255.56;;;10.63
74043;BMP280;62384;53.600;10.040;2022-12-29T06:17:02;-1586.25;;;10.58
74043;BMP280;62384;53.600;10.040;2022-12-29T06:19:28;-261.44;;;10.65
74043;BMP280;62384;53.600;10.040;2022-12-29T06:21:53;-1254.72;;;10.57
74043;BMP280;62384;53.600;10.040;2022-12-29T06:24:19;-1586.91;;;10.63
74043;BMP280;62384;53.600;10.040;2022-12-29T06:26:44;-1587.72;;;10.69
74043;BMP280;62384;53.600;10.040;2022-12-29T06:29:10;-3573.59;;;10.59
74043;BMP280;62384;53.600;10.040;2022-12-29T06:31:35;-4233.09;;;10.45
74043;BMP280;62384;53.600;10.040;2022-12-29T06:34:00;-4233.28;;;10.46
74043;BMP280;62384;53.600;10.040;2022-12-29T06:36:26;-4894.19;;;10.41
74043;BMP280;62384;53.600;10.040;2022-12-29T06:38:51;-5223.94;;;10.36
74043;BMP280;62384;53.600;10.040;2022-12-29T06:41:20;-4232.75;;;10.43
74043;BMP280;62384;53.600;10.040;2022-12-29T06:43:46;-4231.84;;;10.38
74043;BMP280;62384;53.600;10.040;2022-12-29T06:46:11;-4562.81;;;10.38
74043;BMP280;62384;53.600;10.040;2022-12-29T06:48:36;-5221.13;;;10.21
74043;BMP280;62384;53.600;10.040;2022-12-29T06:51:04;-5222.19;;;10.27
74043;BMP280;62384;53.600;10.040;2022-12-29T06:53:29;-5223.63;;;10.34
74043;BMP280;62384;53.600;10.040;2022-12-29T06:55:54;-4892.88;;;10.34
74043;BMP280;62384;53.600;10.040;2022-12-29T06:58:21;-4560.88;;;10.28
74043;BMP280;62384;53.600;10.040;2022-12-29T07:00:47;-4891.75;;;10.28
74043;BMP280;62384;53.600;10.040;2022-12-29T07:03:12;-4560.53;;;10.26
74043;BMP280;62384;53.600;10.040;2022-12-29T07:05:37;-4557.13;;;10.07
74043;BMP280;62384;53.600;10.040;2022-12-29T07:08:03;-4561.97;;;10.34
74043;BMP280;62384;53.600;10.040;2022-12-29T07:10:28;-3568.50;;;10.29
74043;BMP280;62384;53.600;10.040;2022-12-29T07:12:54;-4221.81;;;9.81
74043;BMP280;62384;53.600;10.040;2022-12-29T07:15:19;-4229.28;;;10.23
74043;BMP280;62384;53.600;10.040;2022-12-29T07:17:44;-3898.88;;;10.26
74043;BMP280;62384;53.600;10.040;2022-12-29T07:20:10;-3898.19;;;10.22
74043;BMP280;62384;53.600;10.040;2022-12-29T07:22:36;-4560.97;;;10.28
74043;BMP280;62384;53.600;10.040;2022-12-29T07:25:01;-5221.31;;;10.22
74043;BMP280;62384;53.600;10.040;2022-12-29T07:27:28;-4557.69;;;10.10
74043;BMP280;62384;53.600;10.040;2022-12-29T07:29:53;-4890.91;;;10.24
74043;BMP280;62384;53.600;10.040;2022-12-29T07:32:18;-4555.84;;;10.00
74043;BMP280;62384;53.600;10.040;2022-12-29T07:34:44;-4228.91;;;10.21
74043;BMP280;62384;53.600;10.040;2022-12-29T07:37:14;-4229.53;;;10.25
74043;BMP280;62384;53.600;10.040;2022-12-29T07:39:40;-4229.53;;;10.25
74043;BMP280;62384;53.600;10.040;2022-12-29T07:42:06;-3237.50;;;10.28
74043;BMP280;62384;53.600;10.040;2022-12-29T07:44:31;-3234.41;;;10.09
74043;BMP280;62384;53.600;10.040;2022-12-29T07:46:56;-3565.84;;;10.13
74043;BMP280;62384;53.600;10.040;2022-12-29T07:49:21;-3234.66;;;10.11
74043;BMP280;62384;53.600;10.040;2022-12-29T07:51:47;-2574.44;;;10.21
74043;BMP280;62384;53.600;10.040;2022-12-29T07:54:12;-1251.03;;;10.28
74043;BMP280;62384;53.600;10.040;2022-12-29T07:56:38;-589.81;;;10.39
74043;BMP280;62384;53.600;10.040;2022-12-29T07:59:03;-1250.31;;;10.23
74043;BMP280;62384;53.600;10.040;2022-12-29T08:01:29;-1250.19;;;10.22
74043;BMP280;62384;53.600;10.040;2022-12-29T08:03:54;-1581.19;;;10.21
74043;BMP280;62384;53.600;10.040;2022-12-29T08:06:21;-2244.81;;;10.31
74043;BMP280;62384;53.600;10.040;2022-12-29T08:08:47;-2572.31;;;10.07
74043;BMP280;62384;53.600;10.040;2022-12-29T08:11:12;-2244.66;;;10.30
74043;BMP280;62384;53.600;10.040;2022-12-29T08:13:38;-918.06;;;10.14
74043;BMP280;62384;53.600;10.040;2022-12-29T08:16:03;-1912.22;;;10.20
74043;BMP280;62384;53.600;10.040;2022-12-29T08:18:29;-1911.81;;;10.17
74043;BMP280;62384;53.600;10.040;2022-12-29T08:20:54;-1911.09;;;10.12
74043;BMP280;62384;53.600;10.040;2022-12-29T08:23:19;-2241.81;;;10.10
74043;BMP280;62384;53.600;10.040;2022-12-29T08:25:44;-2242.69;;;10.16
74043;BMP280;62384;53.600;10.040;2022-12-29T08:28:10;-1581.13;;;10.20
74043;BMP280;62384;53.600;10.040;2022-12-29T08:30:35;-588.38;;;10.27
74043;BMP280;62384;53.600;10.040;2022-12-29T08:33:01;-919.19;;;10.23
74043;BMP280;62384;53.600;10.040;2022-12-29T08:35:27;-1249.28;;;10.15
74043;BMP280;62384;53.600;10.040;2022-12-29T08:37:52;-1582.00;;;10.27
74043;BMP280;62384;53.600;10.040;2022-12-29T08:40:17;-582.56;;;9.77
74043;BMP280;62384;53.600;10.040;2022-12-29T08:42:43;-587.59;;;10.20
74043;BMP280;62384;53.600;10.040;2022-12-29T08:45:11;-590.81;;;10.47
74043;BMP280;62384;53.600;10.040;2022-12-29T08:47:40;72.34;;;10.44
74043;BMP280;62384;53.600;10.040;2022-12-29T08:50:10;1399.47;;;10.33
74043;BMP280;62384;53.600;10.040;2022-12-29T08:52:35;3057.28;;;10.40
74043;BMP280;62384;53.600;10.040;2022-12-29T08:55:00;4052.97;;;10.37
74043;BMP280;62384;53.600;10.040;2022-12-29T08:57:26;3388.78;;;10.46
74043;BMP280;62384;53.600;10.040;2022-12-29T08:59:51;4052.34;;;10.51
74043;BMP280;62384;53.600;10.040;2022-12-29T09:02:16;4384.28;;;10.52
74043;BMP280;62384;53.600;10.040;2022-12-29T09:04:42;6709.41;;;10.53
74043;BMP280;62384;53.600;10.040;2022-12-29T09:07:07;7706.63;;;10.60
74043;BMP280;62384;53.600;10.040;2022-12-29T09:09:32;7041.78;;;10.61
74043;BMP280;62384;53.600;10.040;2022-12-29T09:11:58;7374.19;;;10.61
74043;BMP280;62384;53.600;10.040;2022-12-29T09:14:23;9702.44;;;10.66
74043;BMP280;62384;53.600;10.040;2022-12-29T09:16:51;12366.09;;;10.71
74043;BMP280;62384;53.600;10.040;2022-12-29T09:19:35;13032.72;;;10.74
74043;BMP280;62384;53.600;10.040;2022-12-29T09:22:01;16029.84;;;10.53
74043;BMP280;62384;53.600;10.040;2022-12-29T09:24:26;15366.50;;;10.77
74043;BMP280;62384;53.600;10.040;2022-12-29T09:26:51;16034.72;;;10.85
74043;BMP280;62384;53.600;10.040;2022-12-29T09:29:16;19370.22;;;10.72
74043;BMP280;62384;53.600;10.040;2022-12-29T09:31:42;21042.25;;;10.79
74043;BMP280;62384;53.600;10.040;2022-12-29T09:34:07;22382.19;;;10.91
74043;BMP280;62384;53.600;10.040;2022-12-29T09:36:33;25394.22;;;10.93
74043;BMP280;62384;53.600;10.040;2022-12-29T09:38:58;28071.59;;;10.86
74043;BMP280;62384;53.600;10.040;2022-12-29T09:41:27;29082.91;;;11.02
74043;BMP280;62384;53.600;10.040;2022-12-29T09:44:23;32435.16;;;10.96
74043;BMP280;62384;53.600;10.040;2022-12-29T09:46:53;30081.91;;;10.84
74043;BMP280;62384;53.600;10.040;2022-12-29T09:49:35;31761.44;;;10.90
74043;BMP280;62384;53.600;10.040;2022-12-29T09:52:11;31083.25;;;10.71
74043;BMP280;62384;53.600;10.040;2022-12-29T09:54:56;30741.03;;;10.54
74043;BMP280;62384;53.600;10.040;2022-12-29T09:57:33;33770.63;;;10.78
74043;BMP280;62384;53.600;10.040;2022-12-29T10:00:05;33771.06;;;10.79
74043;BMP280;62384;53.600;10.040;2022-12-29T10:02:38;36462.94;;;10.89
74043;BMP280;62384;53.600;10.040;2022-12-29T10:05:14;41561.28;;;10.93
74043;BMP280;62384;53.600;10.040;2022-12-29T10:07:52;49029.59;;;11.04
74043;BMP280;62384;53.600;10.040;2022-12-29T10:10:39;50796.69;;;11.06
74043;BMP280;62384;53.600;10.040;2022-12-29T10:23:56;57068.78;;;10.90
74043;BMP280;62384;53.600;10.040;2022-12-29T10:26:31;57729.91;;;10.86
74043;BMP280;62384;53.600;10.040;2022-12-29T10:29:05;56673.63;;;10.85
74043;BMP280;62384;53.600;10.040;2022-12-29T10:31:43;59095.44;;;10.89
74043;BMP280;62384;53.600;10.040;2022-12-29T10:34:39;60838.28;;;10.87
74043;BMP280;62384;53.600;10.040;2022-12-29T10:37:18;59275.47;;;10.89
74043;BMP280;62384;53.600;10.040;2022-12-29T10:39:52;61973.78;;;10.97
74043;BMP280;62384;53.600;10.040;2022-12-29T10:42:29;62316.03;;;11.09
74043;BMP280;62384;53.600;10.040;2022-12-29T10:44:58;66513.16;;;11.04
74043;BMP280;62384;53.600;10.040;2022-12-29T10:47:28;70405.75;;;11.32
74043;BMP280;62384;53.600;10.040;2022-12-29T10:49:56;70817.16;;;11.11
74043;BMP280;62384;53.600;10.040;2022-12-29T10:52:26;69048.69;;;11.29
74043;BMP280;62384;53.600;10.040;2022-12-29T10:54:58;71054.97;;;10.97
74043;BMP280;62384;53.600;10.040;2022-12-29T10:57:28;71810.94;;;11.30
74043;BMP280;62384;53.600;10.040;2022-12-29T10:59:57;72867.63;;;11.35
74043;BMP280;62384;53.600;10.040;2022-12-29T11:08:21;74156.72;;;11.19
74043;BMP280;62384;53.600;10.040;2022-12-29T11:10:58;71698.53;;;11.10
74043;BMP280;62384;53.600;10.040;2022-12-29T11:13:30;74660.22;;;11.33
74043;BMP280;62384;53.600;10.040;2022-12-29T11:15:58;72650.69;;;11.22
74043;BMP280;62384;53.600;10.040;2022-12-29T11:20:57;74369.88;;;11.00
74043;BMP280;62384;53.600;10.040;2022-12-29T11:23:30;82694.72;;;11.72
74043;BMP280;62384;53.600;10.040;2022-12-29T11:26:24;92682.94;;;12.03
74043;BMP280;62384;53.600;10.040;2022-12-29T11:31:48;89925.19;;;11.70
74043;BMP280;62384;53.600;10.040;2022-12-29T11:34:33;87900.19;;;11.37
74043;BMP280;62384;53.600;10.040;2022-12-29T11:40:06;93087.50;;;11.23
74043;BMP280;62384;53.600;10.040;2022-12-29T11:42:46;106987.28;;;11.45
74043;BMP280;62384;53.600;10.040;2022-12-29T11:45:41;104998.06;;;11.54
74043;BMP280;62384;53.600;10.040;2022-12-29T11:48:08;103004.31;;;11.72
74043;BMP280;62384;53.600;10.040;2022-12-29T11:50:37;106754.25;;;11.67
74043;BMP280;62384;53.600;10.040;2022-12-29T11:53:19;95663.94;;;11.45
74043;BMP280;62384;53.600;10.040;2022-12-29T11:56:00;92090.69;;;11.35
74043;BMP280;62384;53.600;10.040;2022-12-29T11:58:30;87728.91;;;11.45
74043;BMP280;62384;53.600;10.040;2022-12-29T12:01:04;90096.09;;;11.54
74043;BMP280;62384;53.600;10.040;2022-12-29T12:03:35;89751.84;;;11.53
74043;BMP280;62384;53.600;10.040;2022-12-29T12:06:02;89347.06;;;11.66
74043;BMP280;62384;53.600;10.040;2022-12-29T12:08:40;89364.03;;;11.75
74043;BMP280;62384;53.600;10.040;2022-12-29T12:11:18;79426.91;;;11.09
74043;BMP280;62384;53.600;10.040;2022-12-29T12:14:05;77705.66;;;11.30
74043;BMP280;62384;53.600;10.040;2022-12-29T12:16:44;75012.97;;;11.25
74043;BMP280;62384;53.600;10.040;2022-12-29T12:19:24;73909.78;;;11.22
74043;BMP280;62384;53.600;10.040;2022-12-29T12:22:03;73164.81;;;11.00
74043;BMP280;62384;53.600;10.040;2022-12-29T12:24:44;73308.00;;;11.19
74043;BMP280;62384;53.600;10.040;2022-12-29T12:27:19;71856.63;;;11.18
74043;BMP280;62384;53.600;10.040;2022-12-29T12:30:09;72255.25;;;11.23
74043;BMP280;62384;53.600;10.040;2022-12-29T12:33:05;70330.53;;;11.14
74043;BMP280;62384;53.600;10.040;2022-12-29T12:39:02;69484.13;;;11.13
74043;BMP280;62384;53.600;10.040;2022-12-29T12:47:33;64521.88;;;10.97
74043;BMP280;62384;53.600;10.040;2022-12-29T12:53:03;64607.16;;;11.03
74043;BMP280;62384;53.600;10.040;2022-12-29T13:04:08;66885.03;;;11.01
74043;BMP280;62384;53.600;10.040;2022-12-29T13:09:23;68614.41;;;11.04
74043;BMP280;62384;53.600;10.040;2022-12-29T13:12:22;69582.91;;;11.16
74043;BMP280;62384;53.600;10.040;2022-12-29T13:15:19;71747.03;;;11.20
74043;BMP280;62384;53.600;10.040;2022-12-29T13:20:32;68975.47;;;11.12
74043;BMP280;62384;53.600;10.040;2022-12-29T13:23:09;67786.13;;;11.05
74043;BMP280;62384;53.600;10.040;2022-12-29T13:25:49;65387.50;;;10.95
74043;BMP280;62384;53.600;10.040;2022-12-29T13:28:25;59782.69;;;10.69
74043;BMP280;62384;53.600;10.040;2022-12-29T13:31:01;38796.53;;;10.50
74043;BMP280;62384;53.600;10.040;2022-12-29T13:36:22;16689.56;;;10.08
74043;BMP280;62384;53.600;10.040;2022-12-29T13:39:01;10696.59;;;10.00
74043;BMP280;62384;53.600;10.040;2022-12-29T13:41:39;7041.13;;;9.44
74043;BMP280;62384;53.600;10.040;2022-12-29T13:44:07;5713.66;;;9.91
74043;BMP280;62384;53.600;10.040;2022-12-29T13:46:39;8369.47;;;9.80
74043;BMP280;62384;53.600;10.040;2022-12-29T13:49:12;8701.31;;;9.71
74043;BMP280;62384;53.600;10.040;2022-12-29T13:51:43;7373.34;;;9.83
74043;BMP280;62384;53.600;10.040;2022-12-29T13:54:45;7705.44;;;9.87
74043;BMP280;62384;53.600;10.040;2022-12-29T14:00:00;5382.16;;;9.76
74043;BMP280;62384;53.600;10.040;2022-12-29T14:02:37;3060.69;;;9.82
74043;BMP280;62384;53.600;10.040;2022-12-29T14:07:49;2067.63;;;9.66
74043;BMP280;62384;53.600;10.040;2022-12-29T14:10:36;6046.63;;;8.89
74043;BMP280;62384;53.600;10.040;2022-12-29T14:13:17;4722.91;;;8.47
74043;BMP280;62384;53.600;10.040;2022-12-29T14:15:52;3069.16;;;8.38
74043;BMP280;62384;53.600;10.040;2022-12-29T14:18:23;3069.59;;;8.31
74043;BMP280;62384;53.600;10.040;2022-12-29T14:28:47;-1555.00;;;8.25
74043;BMP280;62384;53.600;10.040;2022-12-29T14:31:35;-1225.63;;;8.30
74043;BMP280;62384;53.600;10.040;2022-12-29T14:39:43;-235.81;;;8.37
74043;BMP280;62384;53.600;10.040;2022-12-29T14:44:47;-1226.41;;;8.36
74043;BMP280;62384;53.600;10.040;2022-12-29T14:47:27;754.31;;;8.47
74043;BMP280;62384;53.600;10.040;2022-12-29T14:53:05;-566.88;;;8.44
74043;BMP280;62384;53.600;10.040;2022-12-29T15:00:48;-1226.72;;;8.39
74043;BMP280;62384;53.600;10.040;2022-12-29T15:08:22;-2214.13;;;8.18
74043;BMP280;62384;53.600;10.040;2022-12-29T15:10:56;-2873.03;;;8.12
74043;BMP280;62384;53.600;10.040;2022-12-29T15:13:34;-2215.56;;;8.28
74043;BMP280;62384;53.600;10.040;2022-12-29T15:16:01;-1552.44;;;8.05
74043;BMP280;62384;53.600;10.040;2022-12-29T15:18:29;-1881.50;;;7.99
74043;BMP280;62384;53.600;10.040;2022-12-29T15:21:05;-2545.88;;;8.30
74043;BMP280;62384;53.600;10.040;2022-12-29T15:23:33;-2216.00;;;8.31
74043;BMP280;62384;53.600;10.040;2022-12-29T15:26:06;-2877.31;;;8.40
74043;BMP280;62384;53.600;10.040;2022-12-29T15:28:45;-2878.56;;;8.48
74043;BMP280;62384;53.600;10.040;2022-12-29T15:31:17;-3205.81;;;8.31
74043;BMP280;62384;53.600;10.040;2022-12-29T15:33:47;-2548.06;;;8.45
74043;BMP280;62384;53.600;10.040;2022-12-29T15:36:18;-2548.06;;;8.45
74043;BMP280;62384;53.600;10.040;2022-12-29T15:38:45;-2215.94;;;8.31
74043;BMP280;62384;53.600;10.040;2022-12-29T15:41:20;-2879.50;;;8.54
74043;BMP280;62384;53.600;10.040;2022-12-29T15:44:02;-3209.53;;;8.54
74043;BMP280;62384;53.600;10.040;2022-12-29T15:46:31;-2547.59;;;8.42
74043;BMP280;62384;53.600;10.040;2022-12-29T15:48:57;-1888.69;;;8.51
74043;BMP280;62384;53.600;10.040;2022-12-29T15:51:43;-2220.22;;;8.60
74043;BMP280;62384;53.600;10.040;2022-12-29T15:54:17;-1228.53;;;8.53
74043;BMP280;62384;53.600;10.040;2022-12-29T15:56:43;-1889.31;;;8.55
74043;BMP280;62384;53.600;10.040;2022-12-29T15:59:33;-1888.78;;;8.51
74043;BMP280;62384;53.600;10.040;2022-12-29T16:02:00;-3207.94;;;8.44
74043;BMP280;62384;53.600;10.040;2022-12-29T16:04:29;-3208.00;;;8.44
74043;BMP280;62384;53.600;10.040;2022-12-29T16:11:58;-2215.22;;;8.26
74043;BMP280;62384;53.600;10.040;2022-12-29T16:14:31;-2214.84;;;8.23
74043;BMP280;62384;53.600;10.040;2022-12-29T16:17:01;-2543.91;;;8.17
74043;BMP280;62384;53.600;10.040;2022-12-29T16:19:35;-1554.59;;;8.22
74043;BMP280;62384;53.600;10.040;2022-12-29T16:22:04;-1882.53;;;8.06
74043;BMP280;62384;53.600;10.040;2022-12-29T16:24:38;-1554.88;;;8.24
74043;BMP280;62384;53.600;10.040;2022-12-29T16:29:30;-233.66;;;8.18